sensor_id;sensor_type;location;lat;lon;timestamp;P1;durP1;ratioP1;P2;durP2;ratioP2
34184;SDS011;20454;48.100;11.776;2022-09-01T00:01:33;20.85;;;18.48;;
34184;SDS011;20454;48.100;11.776;2022-09-01T00:04:06;17.77;;;15.88;;
34184;SDS011;20454;48.100;11.776;2022-09-01T00:06:34;22.92;;;19.67;;
34184;SDS011;20454;48.100;11.776;2022-09-01T00:09:02;22.23;;;19.85;;
34184;SDS011;20454;48.100;11.776;2022-09-01T00:11:31;22.25;;;18.00;;
34184;SDS011;20454;48.100;11.776;2022-09-01T00:13:59;27.85;;;18.73;;
34184;SDS011;20454;48.100;11.776;2022-09-01T00:16:28;22.40;;;19.52;;
34184;SDS011;20454;48.100;11.776;2022-09-01T00:18:54;27.65;;;23.02;;
34184;SDS011;20454;48.100;11.776;2022-09-01T00:21:23;25.58;;;20.45;;
34184;SDS011;20454;48.100;11.776;2022-09-01T00:24:01;22.13;;;19.42;;
34184;SDS011;20454;48.100;11.776;2022-09-01T00:26:28;23.90;;;20.48;;
34184;SDS011;20454;48.100;11.776;2022-09-01T00:28:54;33.60;;;25.15;;
34184;SDS011;20454;48.100;11.776;2022-09-01T00:31:21;22.73;;;19.75;;
34184;SDS011;20454;48.100;11.776;2022-09-01T00:33:47;23.52;;;18.95;;
34184;SDS011;20454;48.100;11.776;2022-09-01T00:36:14;20.42;;;17.38;;
34184;SDS011;20454;48.100;11.776;2022-09-01T00:38:41;24.58;;;19.30;;
34184;SDS011;20454;48.100;11.776;2022-09-01T00:41:07;24.65;;;20.13;;
34184;SDS011;20454;48.100;11.776;2022-09-01T00:43:39;23.88;;;19.77;;
34184;SDS011;20454;48.100;11.776;2022-09-01T00:46:12;26.95;;;22.58;;
34184;SDS011;20454;48.100;11.776;2022-09-01T00:48:42;22.45;;;17.80;;
34184;SDS011;20454;48.100;11.776;2022-09-01T00:51:09;19.70;;;17.20;;
34184;SDS011;20454;48.100;11.776;2022-09-01T00:53:36;16.65;;;14.88;;
34184;SDS011;20454;48.100;11.776;2022-09-01T00:56:05;23.38;;;17.35;;
34184;SDS011;20454;48.100;11.776;2022-09-01T00:58:32;24.23;;;18.85;;
34184;SDS011;20454;48.100;11.776;2022-09-01T01:01:00;26.02;;;21.52;;
34184;SDS011;20454;48.100;11.776;2022-09-01T01:03:26;21.20;;;17.95;;
34184;SDS011;20454;48.100;11.776;2022-09-01T01:05:54;22.33;;;18.05;;
34184;SDS011;20454;48.100;11.776;2022-09-01T01:08:32;23.60;;;19.27;;
34184;SDS011;20454;48.100;11.776;2022-09-01T01:11:05;21.65;;;18.45;;
34184;SDS011;20454;48.100;11.776;2022-09-01T01:16:26;30.25;;;22.83;;
34184;SDS011;20454;48.100;11.776;2022-09-01T01:18:53;21.98;;;19.10;;
34184;SDS011;20454;48.100;11.776;2022-09-01T01:21:31;30.75;;;21.95;;
34184;SDS011;20454;48.100;11.776;2022-09-01T01:26:52;32.70;;;22.33;;
34184;SDS011;20454;48.100;11.776;2022-09-01T01:29:24;29.30;;;20.33;;
34184;SDS011;20454;48.100;11.776;2022-09-01T01:31:55;27.80;;;22.42;;
34184;SDS011;20454;48.100;11.776;2022-09-01T01:34:21;26.02;;;21.05;;
34184;SDS011;20454;48.100;11.776;2022-09-01T01:36:47;25.27;;;20.70;;
34184;SDS011;20454;48.100;11.776;2022-09-01T01:39:16;29.10;;;22.20;;
34184;SDS011;20454;48.100;11.776;2022-09-01T01:41:49;22.45;;;18.88;;
34184;SDS011;20454;48.100;11.776;2022-09-01T01:44:17;29.10;;;20.40;;
34184;SDS011;20454;48.100;11.776;2022-09-01T01:46:49;19.17;;;16.33;;
34184;SDS011;20454;48.100;11.776;2022-09-01T01:49:25;25.02;;;19.42;;
34184;SDS011;20454;48.100;11.776;2022-09-01T01:51:53;18.92;;;16.35;;
34184;SDS011;20454;48.100;11.776;2022-09-01T01:54:22;29.55;;;22.15;;
34184;SDS011;20454;48.100;11.776;2022-09-01T01:56:51;22.13;;;18.75;;
34184;SDS011;20454;48.100;11.776;2022-09-01T01:59:16;19.08;;;17.05;;
34184;SDS011;20454;48.100;11.776;2022-09-01T02:01:43;23.90;;;18.80;;
34184;SDS011;20454;48.100;11.776;2022-09-01T02:04:13;22.17;;;19.10;;
34184;SDS011;20454;48.100;11.776;2022-09-01T02:06:41;21.55;;;18.25;;
34184;SDS011;20454;48.100;11.776;2022-09-01T02:09:10;24.70;;;19.65;;
34184;SDS011;20454;48.100;11.776;2022-09-01T02:11:37;22.52;;;18.38;;
34184;SDS011;20454;48.100;11.776;2022-09-01T02:14:04;20.42;;;18.10;;
34184;SDS011;20454;48.100;11.776;2022-09-01T02:16:32;19.90;;;17.80;;
34184;SDS011;20454;48.100;11.776;2022-09-01T02:19:00;21.25;;;18.90;;
34184;SDS011;20454;48.100;11.776;2022-09-01T02:21:31;23.50;;;18.77;;
34184;SDS011;20454;48.100;11.776;2022-09-01T02:24:05;18.10;;;16.20;;
34184;SDS011;20454;48.100;11.776;2022-09-01T02:26:39;17.48;;;15.68;;
34184;SDS011;20454;48.100;11.776;2022-09-01T02:29:13;18.15;;;16.15;;
34184;SDS011;20454;48.100;11.776;2022-09-01T02:31:46;20.65;;;18.38;;
34184;SDS011;20454;48.100;11.776;2022-09-01T02:34:16;21.60;;;19.30;;
34184;SDS011;20454;48.100;11.776;2022-09-01T02:36:45;20.80;;;18.58;;
34184;SDS011;20454;48.100;11.776;2022-09-01T02:39:14;18.92;;;16.92;;
34184;SDS011;20454;48.100;11.776;2022-09-01T02:41:50;18.80;;;15.90;;
34184;SDS011;20454;48.100;11.776;2022-09-01T02:44:17;21.48;;;19.20;;
34184;SDS011;20454;48.100;11.776;2022-09-01T02:46:46;21.95;;;17.40;;
34184;SDS011;20454;48.100;11.776;2022-09-01T02:49:15;17.40;;;15.52;;
34184;SDS011;20454;48.100;11.776;2022-09-01T02:51:47;16.45;;;14.73;;
34184;SDS011;20454;48.100;11.776;2022-09-01T02:54:18;17.93;;;16.07;;
34184;SDS011;20454;48.100;11.776;2022-09-01T02:56:48;20.38;;;18.13;;
34184;SDS011;20454;48.100;11.776;2022-09-01T02:59:15;23.58;;;17.80;;
34184;SDS011;20454;48.100;11.776;2022-09-01T03:01:46;23.15;;;19.00;;
34184;SDS011;20454;48.100;11.776;2022-09-01T03:04:15;22.77;;;17.50;;
34184;SDS011;20454;48.100;11.776;2022-09-01T03:06:42;20.42;;;17.50;;
34184;SDS011;20454;48.100;11.776;2022-09-01T03:09:10;19.10;;;17.08;;
34184;SDS011;20454;48.100;11.776;2022-09-01T03:11:40;16.42;;;14.73;;
34184;SDS011;20454;48.100;11.776;2022-09-01T03:14:09;20.10;;;15.32;;
34184;SDS011;20454;48.100;11.776;2022-09-01T03:16:36;20.90;;;16.58;;
34184;SDS011;20454;48.100;11.776;2022-09-01T03:19:03;17.65;;;15.10;;
34184;SDS011;20454;48.100;11.776;2022-09-01T03:21:34;18.63;;;16.67;;
34184;SDS011;20454;48.100;11.776;2022-09-01T03:24:04;19.63;;;16.48;;
34184;SDS011;20454;48.100;11.776;2022-09-01T03:26:39;18.85;;;15.75;;
34184;SDS011;20454;48.100;11.776;2022-09-01T03:29:07;19.63;;;17.58;;
34184;SDS011;20454;48.100;11.776;2022-09-01T03:31:33;16.63;;;14.93;;
34184;SDS011;20454;48.100;11.776;2022-09-01T03:34:00;16.38;;;14.30;;
34184;SDS011;20454;48.100;11.776;2022-09-01T03:36:30;16.30;;;14.65;;
34184;SDS011;20454;48.100;11.776;2022-09-01T03:38:57;16.33;;;14.65;;
34184;SDS011;20454;48.100;11.776;2022-09-01T03:41:25;15.27;;;13.80;;
34184;SDS011;20454;48.100;11.776;2022-09-01T03:43:53;13.85;;;12.40;;
34184;SDS011;20454;48.100;11.776;2022-09-01T03:46:22;17.17;;;15.27;;
34184;SDS011;20454;48.100;11.776;2022-09-01T03:48:51;21.73;;;16.58;;
34184;SDS011;20454;48.100;11.776;2022-09-01T03:51:22;20.02;;;16.15;;
34184;SDS011;20454;48.100;11.776;2022-09-01T03:53:51;16.92;;;15.25;;
34184;SDS011;20454;48.100;11.776;2022-09-01T03:56:18;16.13;;;14.52;;
34184;SDS011;20454;48.100;11.776;2022-09-01T03:58:45;17.25;;;15.45;;
34184;SDS011;20454;48.100;11.776;2022-09-01T06:02:59;25.20;;;20.52;;
34184;SDS011;20454;48.100;11.776;2022-09-01T06:05:28;30.55;;;22.73;;
34184;SDS011;20454;48.100;11.776;2022-09-01T06:07:56;31.25;;;22.17;;
34184;SDS011;20454;48.100;11.776;2022-09-01T06:10:21;35.72;;;24.30;;
34184;SDS011;20454;48.100;11.776;2022-09-01T06:12:48;30.48;;;23.20;;
34184;SDS011;20454;48.100;11.776;2022-09-01T06:15:17;23.30;;;19.52;;
34184;SDS011;20454;48.100;11.776;2022-09-01T06:17:45;26.88;;;22.40;;
34184;SDS011;20454;48.100;11.776;2022-09-01T06:20:11;32.65;;;23.65;;
34184;SDS011;20454;48.100;11.776;2022-09-01T06:22:37;25.95;;;20.63;;
34184;SDS011;20454;48.100;11.776;2022-09-01T06:25:05;32.00;;;24.25;;
34184;SDS011;20454;48.100;11.776;2022-09-01T06:27:32;28.35;;;21.83;;
34184;SDS011;20454;48.100;11.776;2022-09-01T06:30:03;28.13;;;20.35;;
34184;SDS011;20454;48.100;11.776;2022-09-01T06:32:38;25.23;;;20.48;;
34184;SDS011;20454;48.100;11.776;2022-09-01T06:35:11;24.50;;;20.48;;
34184;SDS011;20454;48.100;11.776;2022-09-01T06:37:39;22.92;;;19.95;;
34184;SDS011;20454;48.100;11.776;2022-09-01T06:40:10;23.15;;;19.00;;
34184;SDS011;20454;48.100;11.776;2022-09-01T06:42:48;22.00;;;19.52;;
34184;SDS011;20454;48.100;11.776;2022-09-01T06:45:17;22.02;;;19.33;;
34184;SDS011;20454;48.100;11.776;2022-09-01T06:47:47;20.13;;;17.75;;
34184;SDS011;20454;48.100;11.776;2022-09-01T06:50:17;19.88;;;16.48;;
34184;SDS011;20454;48.100;11.776;2022-09-01T06:52:46;19.63;;;16.73;;
34184;SDS011;20454;48.100;11.776;2022-09-01T06:55:28;18.08;;;16.27;;
34184;SDS011;20454;48.100;11.776;2022-09-01T06:57:57;18.23;;;15.77;;
34184;SDS011;20454;48.100;11.776;2022-09-01T07:00:23;18.23;;;16.17;;
34184;SDS011;20454;48.100;11.776;2022-09-01T07:02:54;18.15;;;16.27;;
34184;SDS011;20454;48.100;11.776;2022-09-01T07:05:21;18.80;;;16.70;;
34184;SDS011;20454;48.100;11.776;2022-09-01T07:07:50;16.60;;;14.90;;
34184;SDS011;20454;48.100;11.776;2022-09-01T07:10:20;17.95;;;14.73;;
34184;SDS011;20454;48.100;11.776;2022-09-01T07:12:48;14.15;;;12.15;;
34184;SDS011;20454;48.100;11.776;2022-09-01T07:15:20;16.13;;;13.07;;
34184;SDS011;20454;48.100;11.776;2022-09-01T07:17:49;13.57;;;12.23;;
34184;SDS011;20454;48.100;11.776;2022-09-01T07:20:21;13.65;;;12.18;;
34184;SDS011;20454;48.100;11.776;2022-09-01T07:22:53;12.75;;;11.57;;
34184;SDS011;20454;48.100;11.776;2022-09-01T07:25:21;12.15;;;10.98;;
34184;SDS011;20454;48.100;11.776;2022-09-01T07:27:47;11.65;;;10.75;;
34184;SDS011;20454;48.100;11.776;2022-09-01T07:30:19;13.07;;;11.95;;
34184;SDS011;20454;48.100;11.776;2022-09-01T07:32:47;11.95;;;10.85;;
34184;SDS011;20454;48.100;11.776;2022-09-01T07:35:15;11.93;;;10.93;;
34184;SDS011;20454;48.100;11.776;2022-09-01T07:37:45;12.77;;;11.57;;
34184;SDS011;20454;48.100;11.776;2022-09-01T07:40:13;12.77;;;11.63;;
34184;SDS011;20454;48.100;11.776;2022-09-01T07:42:43;13.23;;;11.30;;
34184;SDS011;20454;48.100;11.776;2022-09-01T07:45:11;12.73;;;11.52;;
34184;SDS011;20454;48.100;11.776;2022-09-01T07:47:41;10.75;;;9.93;;
34184;SDS011;20454;48.100;11.776;2022-09-01T07:50:09;11.38;;;10.32;;
34184;SDS011;20454;48.100;11.776;2022-09-01T07:52:39;11.65;;;10.65;;
34184;SDS011;20454;48.100;11.776;2022-09-01T07:55:14;12.52;;;11.45;;
34184;SDS011;20454;48.100;11.776;2022-09-01T07:57:41;11.75;;;10.70;;
34184;SDS011;20454;48.100;11.776;2022-09-01T16:13:50;1.60;;;1.08;;
34184;SDS011;20454;48.100;11.776;2022-09-01T16:18:57;1.60;;;0.90;;
34184;SDS011;20454;48.100;11.776;2022-09-01T16:21:37;1.40;;;1.30;;
34184;SDS011;20454;48.100;11.776;2022-09-01T16:24:25;0.85;;;0.80;;
34184;SDS011;20454;48.100;11.776;2022-09-01T16:26:52;2.97;;;1.58;;
34184;SDS011;20454;48.100;11.776;2022-09-01T16:32:06;2.35;;;1.33;;
34184;SDS011;20454;48.100;11.776;2022-09-01T16:34:31;1.33;;;0.93;;
34184;SDS011;20454;48.100;11.776;2022-09-01T16:39:48;4.10;;;1.23;;
34184;SDS011;20454;48.100;11.776;2022-09-01T16:53:53;1.38;;;1.10;;
34184;SDS011;20454;48.100;11.776;2022-09-01T16:59:49;1.88;;;1.10;;
34184;SDS011;20454;48.100;11.776;2022-09-01T17:05:35;1.35;;;1.00;;
34184;SDS011;20454;48.100;11.776;2022-09-01T17:08:22;2.42;;;1.17;;
34184;SDS011;20454;48.100;11.776;2022-09-01T17:10:54;2.65;;;1.13;;
34184;SDS011;20454;48.100;11.776;2022-09-01T17:13:40;4.60;;;1.20;;
34184;SDS011;20454;48.100;11.776;2022-09-01T17:16:32;3.03;;;1.10;;
34184;SDS011;20454;48.100;11.776;2022-09-01T17:19:03;1.02;;;0.90;;
34184;SDS011;20454;48.100;11.776;2022-09-01T17:21:35;1.55;;;1.17;;
34184;SDS011;20454;48.100;11.776;2022-09-01T17:27:26;1.20;;;1.10;;
34184;SDS011;20454;48.100;11.776;2022-09-01T17:30:12;1.58;;;1.30;;
34184;SDS011;20454;48.100;11.776;2022-09-01T17:33:01;6.10;;;1.10;;
34184;SDS011;20454;48.100;11.776;2022-09-01T17:36:11;5.22;;;1.00;;
34184;SDS011;20454;48.100;11.776;2022-09-01T17:39:07;1.13;;;1.00;;
34184;SDS011;20454;48.100;11.776;2022-09-01T17:53:03;121.82;;;20.25;;
34184;SDS011;20454;48.100;11.776;2022-09-01T17:56:19;160.30;;;28.63;;
34184;SDS011;20454;48.100;11.776;2022-09-01T17:59:08;88.05;;;12.02;;
34184;SDS011;20454;48.100;11.776;2022-09-01T18:05:16;126.35;;;16.85;;
34184;SDS011;20454;48.100;11.776;2022-09-01T18:08:45;58.22;;;8.60;;
34184;SDS011;20454;48.100;11.776;2022-09-01T18:11:09;15.23;;;3.63;;
34184;SDS011;20454;48.100;11.776;2022-09-01T18:58:04;1.83;;;1.73;;
34184;SDS011;20454;48.100;11.776;2022-09-01T19:00:49;1.65;;;1.55;;
34184;SDS011;20454;48.100;11.776;2022-09-01T19:03:32;1.92;;;1.80;;
34184;SDS011;20454;48.100;11.776;2022-09-01T19:06:36;3.65;;;1.58;;
34184;SDS011;20454;48.100;11.776;2022-09-01T19:09:39;2.00;;;1.88;;
34184;SDS011;20454;48.100;11.776;2022-09-01T19:20:28;1.75;;;1.65;;
34184;SDS011;20454;48.100;11.776;2022-09-01T19:23:58;3.67;;;1.73;;
34184;SDS011;20454;48.100;11.776;2022-09-01T19:26:14;1.80;;;1.70;;
34184;SDS011;20454;48.100;11.776;2022-09-01T19:31:24;1.67;;;1.50;;
34184;SDS011;20454;48.100;11.776;2022-09-01T19:33:59;2.20;;;1.98;;
34184;SDS011;20454;48.100;11.776;2022-09-01T19:36:38;2.17;;;1.98;;
34184;SDS011;20454;48.100;11.776;2022-09-01T19:39:19;1.98;;;1.55;;
34184;SDS011;20454;48.100;11.776;2022-09-01T19:44:53;2.15;;;1.70;;
34184;SDS011;20454;48.100;11.776;2022-09-01T19:48:07;2.83;;;1.90;;
34184;SDS011;20454;48.100;11.776;2022-09-01T19:56:23;2.65;;;2.45;;
34184;SDS011;20454;48.100;11.776;2022-09-01T20:02:02;1.88;;;1.75;;
34184;SDS011;20454;48.100;11.776;2022-09-01T20:07:16;1.30;;;1.20;;
34184;SDS011;20454;48.100;11.776;2022-09-01T20:09:53;1.70;;;1.60;;
34184;SDS011;20454;48.100;11.776;2022-09-01T20:12:50;1.85;;;1.58;;
34184;SDS011;20454;48.100;11.776;2022-09-01T20:15:42;1.85;;;1.75;;
34184;SDS011;20454;48.100;11.776;2022-09-01T20:18:43;2.83;;;1.52;;
34184;SDS011;20454;48.100;11.776;2022-09-01T20:21:18;1.85;;;1.75;;
34184;SDS011;20454;48.100;11.776;2022-09-01T20:26:26;1.67;;;1.58;;
34184;SDS011;20454;48.100;11.776;2022-09-01T20:29:06;2.42;;;2.22;;
34184;SDS011;20454;48.100;11.776;2022-09-01T20:32:07;1.70;;;1.50;;
34184;SDS011;20454;48.100;11.776;2022-09-01T20:34:38;2.22;;;1.95;;
34184;SDS011;20454;48.100;11.776;2022-09-01T20:37:26;6.00;;;2.13;;
34184;SDS011;20454;48.100;11.776;2022-09-01T20:42:41;2.75;;;2.03;;
34184;SDS011;20454;48.100;11.776;2022-09-01T20:45:40;3.00;;;2.25;;
34184;SDS011;20454;48.100;11.776;2022-09-01T20:48:35;1.77;;;1.67;;
34184;SDS011;20454;48.100;11.776;2022-09-01T20:51:47;2.28;;;2.08;;
34184;SDS011;20454;48.100;11.776;2022-09-01T20:59:53;1.95;;;1.60;;
34184;SDS011;20454;48.100;11.776;2022-09-01T21:05:35;1.85;;;1.75;;
34184;SDS011;20454;48.100;11.776;2022-09-01T21:08:45;2.33;;;1.88;;
34184;SDS011;20454;48.100;11.776;2022-09-01T21:11:42;1.40;;;1.30;;
34184;SDS011;20454;48.100;11.776;2022-09-01T21:23:06;1.60;;;1.48;;
34184;SDS011;20454;48.100;11.776;2022-09-01T21:25:32;1.98;;;1.88;;
34184;SDS011;20454;48.100;11.776;2022-09-01T21:27:58;4.80;;;2.22;;
34184;SDS011;20454;48.100;11.776;2022-09-01T21:30:31;2.05;;;1.60;;
34184;SDS011;20454;48.100;11.776;2022-09-01T21:32:59;2.38;;;2.13;;
34184;SDS011;20454;48.100;11.776;2022-09-01T21:35:26;6.07;;;1.90;;
34184;SDS011;20454;48.100;11.776;2022-09-01T21:37:52;2.25;;;1.80;;
34184;SDS011;20454;48.100;11.776;2022-09-01T21:40:19;2.60;;;1.98;;
34184;SDS011;20454;48.100;11.776;2022-09-01T21:42:52;2.05;;;1.80;;
34184;SDS011;20454;48.100;11.776;2022-09-01T21:45:25;2.33;;;1.90;;
34184;SDS011;20454;48.100;11.776;2022-09-01T21:47:51;2.67;;;1.80;;
34184;SDS011;20454;48.100;11.776;2022-09-01T21:50:18;1.73;;;1.63;;
34184;SDS011;20454;48.100;11.776;2022-09-01T21:52:47;2.03;;;1.67;;
34184;SDS011;20454;48.100;11.776;2022-09-01T21:55:13;3.42;;;2.08;;
34184;SDS011;20454;48.100;11.776;2022-09-01T21:57:40;2.17;;;1.98;;
34184;SDS011;20454;48.100;11.776;2022-09-01T22:00:07;3.05;;;2.28;;
34184;SDS011;20454;48.100;11.776;2022-09-01T22:02:41;2.05;;;1.85;;
34184;SDS011;20454;48.100;11.776;2022-09-01T22:05:08;2.35;;;2.15;;
34184;SDS011;20454;48.100;11.776;2022-09-01T22:07:35;2.08;;;1.98;;
34184;SDS011;20454;48.100;11.776;2022-09-01T22:10:05;2.90;;;1.95;;
34184;SDS011;20454;48.100;11.776;2022-09-01T22:12:36;2.25;;;2.05;;
34184;SDS011;20454;48.100;11.776;2022-09-01T22:15:05;2.00;;;1.90;;
34184;SDS011;20454;48.100;11.776;2022-09-01T22:17:34;3.40;;;1.73;;
34184;SDS011;20454;48.100;11.776;2022-09-01T22:20:00;1.75;;;1.65;;
34184;SDS011;20454;48.100;11.776;2022-09-01T22:22:30;3.03;;;1.85;;
34184;SDS011;20454;48.100;11.776;2022-09-01T22:24:57;2.97;;;2.17;;
34184;SDS011;20454;48.100;11.776;2022-09-01T22:27:23;2.90;;;2.28;;
34184;SDS011;20454;48.100;11.776;2022-09-01T22:29:49;1.70;;;1.60;;
34184;SDS011;20454;48.100;11.776;2022-09-01T22:32:16;1.88;;;1.77;;
34184;SDS011;20454;48.100;11.776;2022-09-01T22:34:42;2.53;;;1.98;;
34184;SDS011;20454;48.100;11.776;2022-09-01T22:37:08;3.22;;;1.95;;
34184;SDS011;20454;48.100;11.776;2022-09-01T22:39:34;2.00;;;1.85;;
34184;SDS011;20454;48.100;11.776;2022-09-01T22:42:00;2.13;;;1.92;;
34184;SDS011;20454;48.100;11.776;2022-09-01T22:44:27;3.15;;;2.13;;
34184;SDS011;20454;48.100;11.776;2022-09-01T22:46:53;2.55;;;2.33;;
34184;SDS011;20454;48.100;11.776;2022-09-01T22:49:18;1.70;;;1.60;;
34184;SDS011;20454;48.100;11.776;2022-09-01T22:51:44;2.65;;;1.90;;
34184;SDS011;20454;48.100;11.776;2022-09-01T22:54:10;2.33;;;2.13;;
34184;SDS011;20454;48.100;11.776;2022-09-01T22:56:37;2.08;;;1.98;;
34184;SDS011;20454;48.100;11.776;2022-09-01T22:59:06;2.40;;;2.20;;
34184;SDS011;20454;48.100;11.776;2022-09-01T23:01:37;2.58;;;2.38;;
34184;SDS011;20454;48.100;11.776;2022-09-01T23:04:06;2.38;;;2.28;;
34184;SDS011;20454;48.100;11.776;2022-09-01T23:06:37;2.90;;;2.70;;
34184;SDS011;20454;48.100;11.776;2022-09-01T23:09:07;2.10;;;2.00;;
34184;SDS011;20454;48.100;11.776;2022-09-01T23:11:33;2.33;;;2.22;;
34184;SDS011;20454;48.100;11.776;2022-09-01T23:13:59;2.80;;;2.22;;
34184;SDS011;20454;48.100;11.776;2022-09-01T23:16:25;2.55;;;2.35;;
34184;SDS011;20454;48.100;11.776;2022-09-01T23:18:51;3.03;;;2.83;;
34184;SDS011;20454;48.100;11.776;2022-09-01T23:21:19;3.17;;;2.75;;
34184;SDS011;20454;48.100;11.776;2022-09-01T23:23:52;2.60;;;2.13;;
34184;SDS011;20454;48.100;11.776;2022-09-01T23:26:20;12.07;;;1.92;;
34184;SDS011;20454;48.100;11.776;2022-09-01T23:28:46;2.30;;;2.10;;
34184;SDS011;20454;48.100;11.776;2022-09-01T23:31:14;2.28;;;2.17;;
34184;SDS011;20454;48.100;11.776;2022-09-01T23:33:46;2.10;;;2.00;;
34184;SDS011;20454;48.100;11.776;2022-09-01T23:36:16;1.95;;;1.85;;
34184;SDS011;20454;48.100;11.776;2022-09-01T23:38:47;2.88;;;2.28;;
34184;SDS011;20454;48.100;11.776;2022-09-01T23:41:15;2.08;;;1.98;;
34184;SDS011;20454;48.100;11.776;2022-09-01T23:43:51;3.00;;;2.17;;
34184;SDS011;20454;48.100;11.776;2022-09-01T23:46:29;2.40;;;2.20;;
34184;SDS011;20454;48.100;11.776;2022-09-01T23:49:03;2.92;;;2.72;;
34184;SDS011;20454;48.100;11.776;2022-09-01T23:51:29;2.30;;;2.10;;
34184;SDS011;20454;48.100;11.776;2022-09-01T23:53:55;2.35;;;2.17;;
34184;SDS011;20454;48.100;11.776;2022-09-01T23:56:22;2.25;;;2.10;;
34184;SDS011;20454;48.100;11.776;2022-09-01T23:58:51;6.43;;;2.90;;
